sensor_id;sensor_type;location;lat;lon;timestamp;P1;durP1;ratioP1;P2;durP2;ratioP2
13731;SDS011;6937;56.096;12.664;2023-04-25T00:00:28;3.65;;;2.80;;
13731;SDS011;6937;56.096;12.664;2023-04-25T00:02:54;4.90;;;3.13;;
13731;SDS011;6937;56.096;12.664;2023-04-25T00:05:21;5.03;;;2.83;;
13731;SDS011;6937;56.096;12.664;2023-04-25T00:07:48;3.97;;;2.22;;
13731;SDS011;6937;56.096;12.664;2023-04-25T00:10:14;3.13;;;2.17;;
13731;SDS011;6937;56.096;12.664;2023-04-25T00:12:40;2.60;;;2.05;;
13731;SDS011;6937;56.096;12.664;2023-04-25T00:15:06;6.00;;;2.65;;
13731;SDS011;6937;56.096;12.664;2023-04-25T00:17:32;3.95;;;2.33;;
13731;SDS011;6937;56.096;12.664;2023-04-25T00:19:57;4.80;;;2.58;;
13731;SDS011;6937;56.096;12.664;2023-04-25T00:22:23;3.90;;;2.80;;
13731;SDS011;6937;56.096;12.664;2023-04-25T00:24:48;4.57;;;2.65;;
13731;SDS011;6937;56.096;12.664;2023-04-25T00:27:14;3.90;;;2.83;;
13731;SDS011;6937;56.096;12.664;2023-04-25T00:29:39;4.20;;;3.20;;
13731;SDS011;6937;56.096;12.664;2023-04-25T00:32:05;4.18;;;3.22;;
13731;SDS011;6937;56.096;12.664;2023-04-25T00:34:30;7.57;;;4.63;;
13731;SDS011;6937;56.096;12.664;2023-04-25T00:36:56;7.57;;;4.00;;
13731;SDS011;6937;56.096;12.664;2023-04-25T00:39:21;6.35;;;4.95;;
13731;SDS011;6937;56.096;12.664;2023-04-25T00:41:47;6.72;;;4.55;;
13731;SDS011;6937;56.096;12.664;2023-04-25T00:44:13;7.72;;;4.75;;
13731;SDS011;6937;56.096;12.664;2023-04-25T00:46:41;6.40;;;5.47;;
13731;SDS011;6937;56.096;12.664;2023-04-25T00:49:07;6.80;;;5.03;;
13731;SDS011;6937;56.096;12.664;2023-04-25T00:51:33;4.75;;;4.30;;
13731;SDS011;6937;56.096;12.664;2023-04-25T00:53:59;6.18;;;4.85;;
13731;SDS011;6937;56.096;12.664;2023-04-25T00:56:25;6.30;;;5.20;;
13731;SDS011;6937;56.096;12.664;2023-04-25T00:58:52;10.23;;;6.60;;
13731;SDS011;6937;56.096;12.664;2023-04-25T01:01:22;9.35;;;5.50;;
13731;SDS011;6937;56.096;12.664;2023-04-25T01:03:47;7.80;;;6.00;;
13731;SDS011;6937;56.096;12.664;2023-04-25T01:06:15;7.22;;;5.78;;
13731;SDS011;6937;56.096;12.664;2023-04-25T01:08:41;8.05;;;5.65;;
13731;SDS011;6937;56.096;12.664;2023-04-25T01:11:07;8.38;;;6.53;;
13731;SDS011;6937;56.096;12.664;2023-04-25T01:13:32;7.30;;;5.35;;
13731;SDS011;6937;56.096;12.664;2023-04-25T01:15:59;6.22;;;4.60;;
13731;SDS011;6937;56.096;12.664;2023-04-25T01:18:25;6.80;;;4.65;;
13731;SDS011;6937;56.096;12.664;2023-04-25T01:20:51;4.88;;;4.45;;
13731;SDS011;6937;56.096;12.664;2023-04-25T01:23:16;6.43;;;4.50;;
13731;SDS011;6937;56.096;12.664;2023-04-25T01:25:43;8.23;;;4.40;;
13731;SDS011;6937;56.096;12.664;2023-04-25T01:28:09;5.68;;;3.92;;
13731;SDS011;6937;56.096;12.664;2023-04-25T01:30:34;6.93;;;4.13;;
13731;SDS011;6937;56.096;12.664;2023-04-25T01:33:00;5.53;;;4.10;;
13731;SDS011;6937;56.096;12.664;2023-04-25T01:35:27;7.15;;;3.60;;
13731;SDS011;6937;56.096;12.664;2023-04-25T01:37:53;7.22;;;3.53;;
13731;SDS011;6937;56.096;12.664;2023-04-25T01:40:18;4.78;;;2.95;;
13731;SDS011;6937;56.096;12.664;2023-04-25T01:42:45;4.10;;;2.85;;
13731;SDS011;6937;56.096;12.664;2023-04-25T01:45:11;4.45;;;2.97;;
13731;SDS011;6937;56.096;12.664;2023-04-25T01:47:38;4.68;;;2.95;;
13731;SDS011;6937;56.096;12.664;2023-04-25T01:50:05;4.43;;;2.70;;
13731;SDS011;6937;56.096;12.664;2023-04-25T01:52:32;4.60;;;2.60;;
13731;SDS011;6937;56.096;12.664;2023-04-25T01:54:57;3.88;;;2.75;;
13731;SDS011;6937;56.096;12.664;2023-04-25T01:57:26;4.78;;;2.83;;
13731;SDS011;6937;56.096;12.664;2023-04-25T01:59:51;4.20;;;2.90;;
13731;SDS011;6937;56.096;12.664;2023-04-25T02:02:23;4.72;;;3.25;;
13731;SDS011;6937;56.096;12.664;2023-04-25T02:04:48;4.88;;;3.17;;
13731;SDS011;6937;56.096;12.664;2023-04-25T02:07:14;6.15;;;3.50;;
13731;SDS011;6937;56.096;12.664;2023-04-25T02:09:39;5.45;;;3.13;;
13731;SDS011;6937;56.096;12.664;2023-04-25T02:12:05;5.72;;;2.78;;
13731;SDS011;6937;56.096;12.664;2023-04-25T02:14:30;4.72;;;2.70;;
13731;SDS011;6937;56.096;12.664;2023-04-25T02:16:56;5.90;;;3.00;;
13731;SDS011;6937;56.096;12.664;2023-04-25T02:19:22;3.55;;;2.80;;
13731;SDS011;6937;56.096;12.664;2023-04-25T02:21:47;4.63;;;3.40;;
13731;SDS011;6937;56.096;12.664;2023-04-25T02:24:12;5.82;;;3.42;;
13731;SDS011;6937;56.096;12.664;2023-04-25T02:26:38;8.43;;;4.00;;
13731;SDS011;6937;56.096;12.664;2023-04-25T02:29:03;7.78;;;4.10;;
13731;SDS011;6937;56.096;12.664;2023-04-25T02:31:28;5.57;;;4.40;;
13731;SDS011;6937;56.096;12.664;2023-04-25T02:33:54;6.50;;;4.82;;
13731;SDS011;6937;56.096;12.664;2023-04-25T02:36:19;4.97;;;3.70;;
13731;SDS011;6937;56.096;12.664;2023-04-25T02:38:44;6.30;;;3.42;;
13731;SDS011;6937;56.096;12.664;2023-04-25T02:41:10;6.70;;;3.75;;
13731;SDS011;6937;56.096;12.664;2023-04-25T02:43:35;7.00;;;4.18;;
13731;SDS011;6937;56.096;12.664;2023-04-25T02:46:00;6.80;;;4.75;;
13731;SDS011;6937;56.096;12.664;2023-04-25T02:48:26;7.30;;;5.10;;
13731;SDS011;6937;56.096;12.664;2023-04-25T02:50:51;10.90;;;5.07;;
13731;SDS011;6937;56.096;12.664;2023-04-25T02:53:16;11.27;;;4.97;;
13731;SDS011;6937;56.096;12.664;2023-04-25T02:55:42;12.18;;;5.28;;
13731;SDS011;6937;56.096;12.664;2023-04-25T02:58:07;11.38;;;4.82;;
13731;SDS011;6937;56.096;12.664;2023-04-25T03:00:33;11.88;;;5.22;;
13731;SDS011;6937;56.096;12.664;2023-04-25T03:02:58;11.73;;;5.15;;
13731;SDS011;6937;56.096;12.664;2023-04-25T03:05:23;13.32;;;4.72;;
13731;SDS011;6937;56.096;12.664;2023-04-25T03:07:49;8.75;;;3.58;;
13731;SDS011;6937;56.096;12.664;2023-04-25T03:10:14;10.50;;;4.25;;
13731;SDS011;6937;56.096;12.664;2023-04-25T03:12:40;7.45;;;3.55;;
13731;SDS011;6937;56.096;12.664;2023-04-25T03:15:05;8.45;;;3.42;;
13731;SDS011;6937;56.096;12.664;2023-04-25T03:17:31;9.15;;;3.60;;
13731;SDS011;6937;56.096;12.664;2023-04-25T03:19:56;6.50;;;3.25;;
13731;SDS011;6937;56.096;12.664;2023-04-25T03:22:22;7.57;;;3.65;;
13731;SDS011;6937;56.096;12.664;2023-04-25T03:24:49;8.63;;;4.32;;
13731;SDS011;6937;56.096;12.664;2023-04-25T03:27:15;7.85;;;4.55;;
13731;SDS011;6937;56.096;12.664;2023-04-25T03:29:40;6.93;;;3.75;;
13731;SDS011;6937;56.096;12.664;2023-04-25T03:32:06;6.78;;;3.85;;
13731;SDS011;6937;56.096;12.664;2023-04-25T03:34:31;9.93;;;3.85;;
13731;SDS011;6937;56.096;12.664;2023-04-25T03:36:57;8.30;;;3.72;;
13731;SDS011;6937;56.096;12.664;2023-04-25T03:39:22;8.27;;;3.90;;
13731;SDS011;6937;56.096;12.664;2023-04-25T03:41:47;11.95;;;3.72;;
13731;SDS011;6937;56.096;12.664;2023-04-25T03:44:13;8.02;;;3.80;;
13731;SDS011;6937;56.096;12.664;2023-04-25T03:46:39;11.68;;;4.03;;
13731;SDS011;6937;56.096;12.664;2023-04-25T03:49:04;7.93;;;3.58;;
13731;SDS011;6937;56.096;12.664;2023-04-25T03:51:30;8.18;;;3.47;;
13731;SDS011;6937;56.096;12.664;2023-04-25T03:53:55;6.90;;;3.38;;
13731;SDS011;6937;56.096;12.664;2023-04-25T03:56:21;8.75;;;3.28;;
13731;SDS011;6937;56.096;12.664;2023-04-25T03:58:47;6.50;;;3.50;;
13731;SDS011;6937;56.096;12.664;2023-04-25T04:01:13;5.03;;;3.35;;
13731;SDS011;6937;56.096;12.664;2023-04-25T04:03:38;8.43;;;3.75;;
13731;SDS011;6937;56.096;12.664;2023-04-25T04:06:04;6.45;;;3.33;;
13731;SDS011;6937;56.096;12.664;2023-04-25T04:08:30;7.88;;;3.13;;
13731;SDS011;6937;56.096;12.664;2023-04-25T04:10:59;6.88;;;3.25;;
13731;SDS011;6937;56.096;12.664;2023-04-25T04:13:28;7.35;;;2.88;;
13731;SDS011;6937;56.096;12.664;2023-04-25T04:15:53;7.03;;;2.78;;
13731;SDS011;6937;56.096;12.664;2023-04-25T04:18:19;8.30;;;3.25;;
13731;SDS011;6937;56.096;12.664;2023-04-25T04:20:44;6.55;;;2.88;;
13731;SDS011;6937;56.096;12.664;2023-04-25T04:23:10;5.43;;;2.97;;
13731;SDS011;6937;56.096;12.664;2023-04-25T04:25:35;5.43;;;3.15;;
13731;SDS011;6937;56.096;12.664;2023-04-25T04:28:01;5.68;;;3.00;;
13731;SDS011;6937;56.096;12.664;2023-04-25T04:30:27;4.72;;;2.55;;
13731;SDS011;6937;56.096;12.664;2023-04-25T04:32:56;5.32;;;2.97;;
13731;SDS011;6937;56.096;12.664;2023-04-25T04:35:22;6.38;;;2.60;;
13731;SDS011;6937;56.096;12.664;2023-04-25T04:37:48;6.55;;;2.83;;
13731;SDS011;6937;56.096;12.664;2023-04-25T04:40:14;6.55;;;3.03;;
13731;SDS011;6937;56.096;12.664;2023-04-25T04:42:43;6.43;;;3.13;;
13731;SDS011;6937;56.096;12.664;2023-04-25T04:45:12;7.70;;;2.95;;
13731;SDS011;6937;56.096;12.664;2023-04-25T04:47:38;8.65;;;3.42;;
13731;SDS011;6937;56.096;12.664;2023-04-25T04:50:05;8.05;;;3.00;;
13731;SDS011;6937;56.096;12.664;2023-04-25T04:52:33;5.53;;;2.90;;
13731;SDS011;6937;56.096;12.664;2023-04-25T04:54:59;13.52;;;3.83;;
13731;SDS011;6937;56.096;12.664;2023-04-25T04:57:25;8.85;;;3.35;;
13731;SDS011;6937;56.096;12.664;2023-04-25T04:59:50;10.23;;;3.63;;
13731;SDS011;6937;56.096;12.664;2023-04-25T05:02:16;13.40;;;3.80;;
13731;SDS011;6937;56.096;12.664;2023-04-25T05:04:41;12.60;;;3.40;;
13731;SDS011;6937;56.096;12.664;2023-04-25T05:07:07;10.73;;;3.42;;
13731;SDS011;6937;56.096;12.664;2023-04-25T05:09:32;10.82;;;3.90;;
13731;SDS011;6937;56.096;12.664;2023-04-25T05:11:58;12.32;;;3.85;;
13731;SDS011;6937;56.096;12.664;2023-04-25T05:14:23;11.52;;;3.70;;
13731;SDS011;6937;56.096;12.664;2023-04-25T05:16:48;13.80;;;4.18;;
13731;SDS011;6937;56.096;12.664;2023-04-25T05:19:14;10.20;;;4.10;;
13731;SDS011;6937;56.096;12.664;2023-04-25T05:21:39;10.40;;;3.90;;
13731;SDS011;6937;56.096;12.664;2023-04-25T05:24:05;11.50;;;3.92;;
13731;SDS011;6937;56.096;12.664;2023-04-25T05:26:30;11.48;;;4.43;;
13731;SDS011;6937;56.096;12.664;2023-04-25T05:28:59;12.52;;;4.03;;
13731;SDS011;6937;56.096;12.664;2023-04-25T05:31:24;13.38;;;4.22;;
13731;SDS011;6937;56.096;12.664;2023-04-25T05:33:50;16.30;;;4.18;;
13731;SDS011;6937;56.096;12.664;2023-04-25T05:36:16;12.38;;;4.20;;
13731;SDS011;6937;56.096;12.664;2023-04-25T05:38:41;15.70;;;4.15;;
13731;SDS011;6937;56.096;12.664;2023-04-25T05:41:07;11.00;;;3.75;;
13731;SDS011;6937;56.096;12.664;2023-04-25T05:43:32;18.23;;;4.50;;
13731;SDS011;6937;56.096;12.664;2023-04-25T05:45:58;12.25;;;4.55;;
13731;SDS011;6937;56.096;12.664;2023-04-25T05:48:23;16.58;;;4.47;;
13731;SDS011;6937;56.096;12.664;2023-04-25T05:50:49;17.80;;;4.68;;
13731;SDS011;6937;56.096;12.664;2023-04-25T05:53:16;16.38;;;4.97;;
13731;SDS011;6937;56.096;12.664;2023-04-25T05:55:42;20.98;;;4.82;;
13731;SDS011;6937;56.096;12.664;2023-04-25T05:58:07;17.75;;;4.75;;
13731;SDS011;6937;56.096;12.664;2023-04-25T06:00:32;16.55;;;5.05;;
13731;SDS011;6937;56.096;12.664;2023-04-25T06:02:58;13.18;;;4.47;;
13731;SDS011;6937;56.096;12.664;2023-04-25T06:05:24;15.18;;;4.50;;
13731;SDS011;6937;56.096;12.664;2023-04-25T06:07:50;16.40;;;5.45;;
13731;SDS011;6937;56.096;12.664;2023-04-25T06:10:15;11.73;;;4.20;;
13731;SDS011;6937;56.096;12.664;2023-04-25T06:12:40;15.25;;;4.60;;
13731;SDS011;6937;56.096;12.664;2023-04-25T06:15:06;14.73;;;5.35;;
13731;SDS011;6937;56.096;12.664;2023-04-25T06:17:32;15.57;;;4.65;;
13731;SDS011;6937;56.096;12.664;2023-04-25T06:19:58;15.77;;;4.63;;
13731;SDS011;6937;56.096;12.664;2023-04-25T06:22:23;18.35;;;4.97;;
13731;SDS011;6937;56.096;12.664;2023-04-25T06:24:48;17.80;;;4.40;;
13731;SDS011;6937;56.096;12.664;2023-04-25T06:27:13;13.70;;;4.40;;
13731;SDS011;6937;56.096;12.664;2023-04-25T06:29:39;15.20;;;4.15;;
13731;SDS011;6937;56.096;12.664;2023-04-25T06:32:04;11.07;;;3.30;;
13731;SDS011;6937;56.096;12.664;2023-04-25T06:34:30;15.77;;;3.92;;
13731;SDS011;6937;56.096;12.664;2023-04-25T06:36:55;9.65;;;2.88;;
13731;SDS011;6937;56.096;12.664;2023-04-25T06:39:21;11.27;;;3.13;;
13731;SDS011;6937;56.096;12.664;2023-04-25T06:41:48;9.45;;;3.00;;
13731;SDS011;6937;56.096;12.664;2023-04-25T06:44:14;7.35;;;3.00;;
13731;SDS011;6937;56.096;12.664;2023-04-25T06:46:40;10.63;;;3.10;;
13731;SDS011;6937;56.096;12.664;2023-04-25T06:49:05;10.15;;;3.28;;
13731;SDS011;6937;56.096;12.664;2023-04-25T06:51:31;8.38;;;2.70;;
13731;SDS011;6937;56.096;12.664;2023-04-25T06:53:56;10.45;;;2.80;;
13731;SDS011;6937;56.096;12.664;2023-04-25T06:56:22;8.48;;;2.97;;
13731;SDS011;6937;56.096;12.664;2023-04-25T06:58:48;7.38;;;2.63;;
13731;SDS011;6937;56.096;12.664;2023-04-25T07:01:13;8.63;;;2.67;;
13731;SDS011;6937;56.096;12.664;2023-04-25T07:03:39;8.05;;;2.55;;
13731;SDS011;6937;56.096;12.664;2023-04-25T07:06:04;5.85;;;2.47;;
13731;SDS011;6937;56.096;12.664;2023-04-25T07:08:30;5.55;;;2.30;;
13731;SDS011;6937;56.096;12.664;2023-04-25T07:10:55;7.57;;;2.30;;
13731;SDS011;6937;56.096;12.664;2023-04-25T07:13:20;7.25;;;2.72;;
13731;SDS011;6937;56.096;12.664;2023-04-25T07:15:46;5.80;;;2.38;;
13731;SDS011;6937;56.096;12.664;2023-04-25T07:18:13;9.32;;;2.53;;
13731;SDS011;6937;56.096;12.664;2023-04-25T07:20:38;5.20;;;2.10;;
13731;SDS011;6937;56.096;12.664;2023-04-25T07:23:04;5.18;;;2.05;;
13731;SDS011;6937;56.096;12.664;2023-04-25T07:25:29;8.48;;;2.65;;
13731;SDS011;6937;56.096;12.664;2023-04-25T07:27:55;8.00;;;2.67;;
13731;SDS011;6937;56.096;12.664;2023-04-25T07:30:21;5.47;;;2.13;;
13731;SDS011;6937;56.096;12.664;2023-04-25T07:32:47;5.97;;;2.20;;
13731;SDS011;6937;56.096;12.664;2023-04-25T07:35:13;6.75;;;2.33;;
13731;SDS011;6937;56.096;12.664;2023-04-25T07:37:38;8.43;;;2.60;;
13731;SDS011;6937;56.096;12.664;2023-04-25T07:40:04;7.50;;;2.72;;
13731;SDS011;6937;56.096;12.664;2023-04-25T07:42:30;6.03;;;2.22;;
13731;SDS011;6937;56.096;12.664;2023-04-25T07:44:56;6.97;;;2.20;;
13731;SDS011;6937;56.096;12.664;2023-04-25T07:47:21;9.07;;;2.47;;
13731;SDS011;6937;56.096;12.664;2023-04-25T07:49:46;5.85;;;2.08;;
13731;SDS011;6937;56.096;12.664;2023-04-25T07:52:12;8.80;;;2.45;;
13731;SDS011;6937;56.096;12.664;2023-04-25T07:54:37;5.40;;;2.08;;
13731;SDS011;6937;56.096;12.664;2023-04-25T07:57:03;5.07;;;2.03;;
13731;SDS011;6937;56.096;12.664;2023-04-25T07:59:28;6.13;;;1.73;;
13731;SDS011;6937;56.096;12.664;2023-04-25T08:01:54;7.32;;;2.13;;
13731;SDS011;6937;56.096;12.664;2023-04-25T08:04:19;4.72;;;1.73;;
13731;SDS011;6937;56.096;12.664;2023-04-25T08:06:45;6.05;;;2.00;;
13731;SDS011;6937;56.096;12.664;2023-04-25T08:09:10;7.38;;;1.60;;
13731;SDS011;6937;56.096;12.664;2023-04-25T08:11:36;3.90;;;1.50;;
13731;SDS011;6937;56.096;12.664;2023-04-25T08:14:02;5.07;;;1.65;;
13731;SDS011;6937;56.096;12.664;2023-04-25T08:16:27;5.32;;;2.22;;
13731;SDS011;6937;56.096;12.664;2023-04-25T08:18:53;5.30;;;1.75;;
13731;SDS011;6937;56.096;12.664;2023-04-25T08:21:19;3.55;;;1.63;;
13731;SDS011;6937;56.096;12.664;2023-04-25T08:23:45;6.75;;;2.20;;
13731;SDS011;6937;56.096;12.664;2023-04-25T08:26:10;5.60;;;1.83;;
13731;SDS011;6937;56.096;12.664;2023-04-25T08:28:36;3.83;;;1.85;;
13731;SDS011;6937;56.096;12.664;2023-04-25T08:31:01;4.38;;;1.75;;
13731;SDS011;6937;56.096;12.664;2023-04-25T08:33:26;4.97;;;2.10;;
13731;SDS011;6937;56.096;12.664;2023-04-25T08:35:52;5.47;;;2.95;;
13731;SDS011;6937;56.096;12.664;2023-04-25T08:38:17;5.72;;;2.72;;
13731;SDS011;6937;56.096;12.664;2023-04-25T08:40:43;5.50;;;3.00;;
13731;SDS011;6937;56.096;12.664;2023-04-25T08:43:09;4.35;;;2.90;;
13731;SDS011;6937;56.096;12.664;2023-04-25T08:45:39;5.75;;;3.05;;
13731;SDS011;6937;56.096;12.664;2023-04-25T08:48:07;10.23;;;3.50;;
13731;SDS011;6937;56.096;12.664;2023-04-25T08:50:45;8.10;;;3.35;;
13731;SDS011;6937;56.096;12.664;2023-04-25T08:53:15;7.10;;;3.13;;
13731;SDS011;6937;56.096;12.664;2023-04-25T08:55:43;6.50;;;2.55;;
13731;SDS011;6937;56.096;12.664;2023-04-25T08:58:11;11.43;;;3.20;;
13731;SDS011;6937;56.096;12.664;2023-04-25T09:00:37;8.73;;;3.50;;
13731;SDS011;6937;56.096;12.664;2023-04-25T09:03:03;11.18;;;3.97;;
13731;SDS011;6937;56.096;12.664;2023-04-25T09:05:28;10.40;;;4.18;;
13731;SDS011;6937;56.096;12.664;2023-04-25T09:07:54;10.50;;;3.75;;
13731;SDS011;6937;56.096;12.664;2023-04-25T09:10:19;9.23;;;3.13;;
13731;SDS011;6937;56.096;12.664;2023-04-25T09:12:45;10.60;;;3.45;;
13731;SDS011;6937;56.096;12.664;2023-04-25T09:15:28;10.32;;;3.08;;
13731;SDS011;6937;56.096;12.664;2023-04-25T09:17:57;14.68;;;3.60;;
13731;SDS011;6937;56.096;12.664;2023-04-25T09:20:23;11.05;;;3.40;;
13731;SDS011;6937;56.096;12.664;2023-04-25T09:22:49;11.18;;;3.67;;
13731;SDS011;6937;56.096;12.664;2023-04-25T09:25:27;12.82;;;3.63;;
13731;SDS011;6937;56.096;12.664;2023-04-25T09:28:00;14.70;;;3.95;;
13731;SDS011;6937;56.096;12.664;2023-04-25T09:30:30;16.98;;;3.97;;
13731;SDS011;6937;56.096;12.664;2023-04-25T09:32:57;13.63;;;4.80;;
13731;SDS011;6937;56.096;12.664;2023-04-25T09:35:28;15.90;;;4.47;;
13731;SDS011;6937;56.096;12.664;2023-04-25T09:37:55;14.40;;;4.10;;
13731;SDS011;6937;56.096;12.664;2023-04-25T09:40:21;18.15;;;4.28;;
13731;SDS011;6937;56.096;12.664;2023-04-25T09:42:46;14.52;;;4.20;;
13731;SDS011;6937;56.096;12.664;2023-04-25T09:45:12;15.95;;;4.40;;
13731;SDS011;6937;56.096;12.664;2023-04-25T09:47:40;15.90;;;4.18;;
13731;SDS011;6937;56.096;12.664;2023-04-25T09:50:13;18.33;;;3.92;;
13731;SDS011;6937;56.096;12.664;2023-04-25T09:52:40;18.95;;;4.05;;
13731;SDS011;6937;56.096;12.664;2023-04-25T09:55:06;14.52;;;4.65;;
13731;SDS011;6937;56.096;12.664;2023-04-25T09:57:32;15.90;;;3.80;;
13731;SDS011;6937;56.096;12.664;2023-04-25T09:59:57;15.05;;;4.03;;
13731;SDS011;6937;56.096;12.664;2023-04-25T10:02:26;22.58;;;4.50;;
13731;SDS011;6937;56.096;12.664;2023-04-25T10:04:53;17.02;;;4.45;;
13731;SDS011;6937;56.096;12.664;2023-04-25T10:07:22;16.23;;;3.97;;
13731;SDS011;6937;56.096;12.664;2023-04-25T10:09:52;16.02;;;4.05;;
13731;SDS011;6937;56.096;12.664;2023-04-25T10:12:28;16.15;;;4.32;;
13731;SDS011;6937;56.096;12.664;2023-04-25T10:14:54;17.88;;;4.00;;
13731;SDS011;6937;56.096;12.664;2023-04-25T10:17:20;13.23;;;3.50;;
13731;SDS011;6937;56.096;12.664;2023-04-25T10:19:48;13.32;;;3.08;;
13731;SDS011;6937;56.096;12.664;2023-04-25T10:22:16;18.17;;;3.85;;
13731;SDS011;6937;56.096;12.664;2023-04-25T10:24:46;14.40;;;3.10;;
13731;SDS011;6937;56.096;12.664;2023-04-25T10:27:11;13.23;;;3.42;;
13731;SDS011;6937;56.096;12.664;2023-04-25T10:29:37;14.70;;;3.53;;
13731;SDS011;6937;56.096;12.664;2023-04-25T10:32:03;13.40;;;3.88;;
13731;SDS011;6937;56.096;12.664;2023-04-25T10:34:38;15.15;;;4.10;;
13731;SDS011;6937;56.096;12.664;2023-04-25T10:37:05;18.02;;;3.63;;
13731;SDS011;6937;56.096;12.664;2023-04-25T10:39:35;18.30;;;3.95;;
13731;SDS011;6937;56.096;12.664;2023-04-25T10:42:01;18.67;;;3.65;;
13731;SDS011;6937;56.096;12.664;2023-04-25T10:44:28;14.43;;;3.35;;
13731;SDS011;6937;56.096;12.664;2023-04-25T10:46:57;18.63;;;4.25;;
13731;SDS011;6937;56.096;12.664;2023-04-25T10:49:32;13.10;;;4.00;;
13731;SDS011;6937;56.096;12.664;2023-04-25T10:52:18;16.73;;;3.53;;
13731;SDS011;6937;56.096;12.664;2023-04-25T10:54:52;15.55;;;3.45;;
13731;SDS011;6937;56.096;12.664;2023-04-25T11:00:17;14.77;;;3.60;;
13731;SDS011;6937;56.096;12.664;2023-04-25T11:02:48;15.00;;;3.45;;
13731;SDS011;6937;56.096;12.664;2023-04-25T11:05:19;14.80;;;3.65;;
13731;SDS011;6937;56.096;12.664;2023-04-25T11:07:49;11.25;;;3.63;;
13731;SDS011;6937;56.096;12.664;2023-04-25T11:10:19;12.05;;;2.80;;
13731;SDS011;6937;56.096;12.664;2023-04-25T11:12:45;10.00;;;3.00;;
13731;SDS011;6937;56.096;12.664;2023-04-25T11:15:12;11.43;;;3.20;;
13731;SDS011;6937;56.096;12.664;2023-04-25T11:17:38;14.05;;;4.05;;
13731;SDS011;6937;56.096;12.664;2023-04-25T11:20:05;15.48;;;4.82;;
13731;SDS011;6937;56.096;12.664;2023-04-25T11:22:33;17.15;;;4.43;;
13731;SDS011;6937;56.096;12.664;2023-04-25T11:25:04;13.05;;;3.60;;
13731;SDS011;6937;56.096;12.664;2023-04-25T11:27:31;13.98;;;3.95;;
13731;SDS011;6937;56.096;12.664;2023-04-25T11:29:56;17.98;;;4.22;;
13731;SDS011;6937;56.096;12.664;2023-04-25T11:32:21;13.45;;;4.18;;
13731;SDS011;6937;56.096;12.664;2023-04-25T11:34:47;14.15;;;3.63;;
13731;SDS011;6937;56.096;12.664;2023-04-25T11:37:12;13.05;;;3.58;;
13731;SDS011;6937;56.096;12.664;2023-04-25T11:39:42;15.57;;;3.83;;
13731;SDS011;6937;56.096;12.664;2023-04-25T11:42:08;20.67;;;4.32;;
13731;SDS011;6937;56.096;12.664;2023-04-25T11:44:34;12.10;;;3.67;;
13731;SDS011;6937;56.096;12.664;2023-04-25T11:46:59;15.13;;;3.80;;
13731;SDS011;6937;56.096;12.664;2023-04-25T11:49:25;17.52;;;5.13;;
13731;SDS011;6937;56.096;12.664;2023-04-25T11:51:55;13.25;;;4.10;;
13731;SDS011;6937;56.096;12.664;2023-04-25T11:54:21;14.55;;;3.92;;
13731;SDS011;6937;56.096;12.664;2023-04-25T11:56:47;13.27;;;4.38;;
13731;SDS011;6937;56.096;12.664;2023-04-25T11:59:13;18.58;;;4.32;;
13731;SDS011;6937;56.096;12.664;2023-04-25T12:01:39;13.70;;;3.83;;
13731;SDS011;6937;56.096;12.664;2023-04-25T12:06:37;12.50;;;3.53;;
13731;SDS011;6937;56.096;12.664;2023-04-25T12:09:11;11.80;;;3.75;;
13731;SDS011;6937;56.096;12.664;2023-04-25T12:11:48;11.02;;;3.65;;
13731;SDS011;6937;56.096;12.664;2023-04-25T12:14:27;14.18;;;3.85;;
13731;SDS011;6937;56.096;12.664;2023-04-25T12:16:55;15.43;;;3.78;;
13731;SDS011;6937;56.096;12.664;2023-04-25T12:19:22;16.35;;;4.30;;
13731;SDS011;6937;56.096;12.664;2023-04-25T12:21:48;15.02;;;3.75;;
13731;SDS011;6937;56.096;12.664;2023-04-25T12:24:18;12.05;;;3.90;;
13731;SDS011;6937;56.096;12.664;2023-04-25T12:29:25;16.83;;;4.15;;
13731;SDS011;6937;56.096;12.664;2023-04-25T12:31:51;14.05;;;4.15;;
13731;SDS011;6937;56.096;12.664;2023-04-25T12:34:18;12.20;;;3.78;;
13731;SDS011;6937;56.096;12.664;2023-04-25T12:36:44;13.23;;;3.58;;
13731;SDS011;6937;56.096;12.664;2023-04-25T12:39:22;11.48;;;3.75;;
13731;SDS011;6937;56.096;12.664;2023-04-25T12:41:52;8.88;;;3.58;;
13731;SDS011;6937;56.096;12.664;2023-04-25T12:44:21;11.55;;;3.47;;
13731;SDS011;6937;56.096;12.664;2023-04-25T12:46:46;11.13;;;3.42;;
13731;SDS011;6937;56.096;12.664;2023-04-25T12:49:12;11.77;;;3.97;;
13731;SDS011;6937;56.096;12.664;2023-04-25T12:51:38;11.48;;;3.15;;
13731;SDS011;6937;56.096;12.664;2023-04-25T12:54:04;10.32;;;3.15;;
13731;SDS011;6937;56.096;12.664;2023-04-25T12:56:31;16.65;;;3.90;;
13731;SDS011;6937;56.096;12.664;2023-04-25T12:58:57;11.27;;;3.47;;
13731;SDS011;6937;56.096;12.664;2023-04-25T13:01:23;11.07;;;3.10;;
13731;SDS011;6937;56.096;12.664;2023-04-25T13:03:49;9.05;;;2.72;;
13731;SDS011;6937;56.096;12.664;2023-04-25T13:06:15;11.30;;;3.28;;
13731;SDS011;6937;56.096;12.664;2023-04-25T13:08:41;11.50;;;3.47;;
13731;SDS011;6937;56.096;12.664;2023-04-25T13:11:07;10.43;;;3.25;;
13731;SDS011;6937;56.096;12.664;2023-04-25T13:13:32;8.73;;;3.40;;
13731;SDS011;6937;56.096;12.664;2023-04-25T13:16:00;11.05;;;3.30;;
13731;SDS011;6937;56.096;12.664;2023-04-25T13:18:29;10.80;;;3.28;;
13731;SDS011;6937;56.096;12.664;2023-04-25T13:20:55;10.88;;;2.90;;
13731;SDS011;6937;56.096;12.664;2023-04-25T13:23:20;9.55;;;2.92;;
13731;SDS011;6937;56.096;12.664;2023-04-25T13:25:46;9.10;;;2.60;;
13731;SDS011;6937;56.096;12.664;2023-04-25T13:28:12;9.65;;;3.40;;
13731;SDS011;6937;56.096;12.664;2023-04-25T13:30:38;9.48;;;3.08;;
13731;SDS011;6937;56.096;12.664;2023-04-25T13:33:04;7.95;;;3.00;;
13731;SDS011;6937;56.096;12.664;2023-04-25T13:35:31;8.07;;;2.95;;
13731;SDS011;6937;56.096;12.664;2023-04-25T13:37:58;11.00;;;2.95;;
13731;SDS011;6937;56.096;12.664;2023-04-25T13:40:23;8.90;;;2.50;;
13731;SDS011;6937;56.096;12.664;2023-04-25T13:42:49;8.35;;;2.72;;
13731;SDS011;6937;56.096;12.664;2023-04-25T13:45:14;12.93;;;3.35;;
13731;SDS011;6937;56.096;12.664;2023-04-25T13:47:39;9.23;;;2.83;;
13731;SDS011;6937;56.096;12.664;2023-04-25T13:50:05;8.32;;;2.72;;
13731;SDS011;6937;56.096;12.664;2023-04-25T13:52:32;6.95;;;2.50;;
13731;SDS011;6937;56.096;12.664;2023-04-25T13:54:58;8.50;;;2.80;;
13731;SDS011;6937;56.096;12.664;2023-04-25T13:57:23;6.75;;;2.67;;
13731;SDS011;6937;56.096;12.664;2023-04-25T13:59:49;9.73;;;2.70;;
13731;SDS011;6937;56.096;12.664;2023-04-25T14:02:15;6.88;;;2.53;;
13731;SDS011;6937;56.096;12.664;2023-04-25T14:04:41;9.60;;;2.80;;
13731;SDS011;6937;56.096;12.664;2023-04-25T14:07:06;9.45;;;2.95;;
13731;SDS011;6937;56.096;12.664;2023-04-25T14:09:32;9.43;;;2.78;;
13731;SDS011;6937;56.096;12.664;2023-04-25T14:11:57;10.60;;;3.17;;
13731;SDS011;6937;56.096;12.664;2023-04-25T14:14:23;8.25;;;2.53;;
13731;SDS011;6937;56.096;12.664;2023-04-25T14:16:49;8.50;;;2.78;;
13731;SDS011;6937;56.096;12.664;2023-04-25T14:19:15;6.57;;;2.70;;
13731;SDS011;6937;56.096;12.664;2023-04-25T14:21:41;6.95;;;2.65;;
13731;SDS011;6937;56.096;12.664;2023-04-25T14:24:06;7.43;;;2.60;;
13731;SDS011;6937;56.096;12.664;2023-04-25T14:26:33;7.35;;;2.15;;
13731;SDS011;6937;56.096;12.664;2023-04-25T14:28:59;6.85;;;2.65;;
13731;SDS011;6937;56.096;12.664;2023-04-25T14:31:24;10.10;;;2.55;;
13731;SDS011;6937;56.096;12.664;2023-04-25T14:33:50;10.00;;;2.30;;
13731;SDS011;6937;56.096;12.664;2023-04-25T14:36:15;7.32;;;2.38;;
13731;SDS011;6937;56.096;12.664;2023-04-25T14:38:40;8.57;;;2.50;;
13731;SDS011;6937;56.096;12.664;2023-04-25T14:41:06;8.63;;;2.72;;
13731;SDS011;6937;56.096;12.664;2023-04-25T14:43:31;8.05;;;2.20;;